sensor_id;sensor_type;location;lat;lon;timestamp;P1;durP1;ratioP1;P2;durP2;ratioP2
18867;SDS011;9563;49.240;9.088;2023-08-24T04:00:41;6.03;;;3.50;;
18867;SDS011;9563;49.240;9.088;2023-08-24T04:03:08;9.35;;;3.08;;
18867;SDS011;9563;49.240;9.088;2023-08-24T04:05:35;6.32;;;3.17;;
18867;SDS011;9563;49.240;9.088;2023-08-24T04:08:02;5.93;;;3.55;;
18867;SDS011;9563;49.240;9.088;2023-08-24T04:10:30;4.97;;;3.15;;
18867;SDS011;9563;49.240;9.088;2023-08-24T04:15:30;4.65;;;3.25;;
18867;SDS011;9563;49.240;9.088;2023-08-24T04:17:59;9.38;;;3.67;;
18867;SDS011;9563;49.240;9.088;2023-08-24T04:20:26;3.97;;;2.97;;
18867;SDS011;9563;49.240;9.088;2023-08-24T04:22:53;7.35;;;3.60;;
18867;SDS011;9563;49.240;9.088;2023-08-24T04:25:21;6.40;;;3.17;;
18867;SDS011;9563;49.240;9.088;2023-08-24T04:27:48;5.82;;;3.88;;
18867;SDS011;9563;49.240;9.088;2023-08-24T04:30:14;8.68;;;3.35;;
18867;SDS011;9563;49.240;9.088;2023-08-24T04:32:41;9.10;;;3.63;;
18867;SDS011;9563;49.240;9.088;2023-08-24T04:35:10;7.95;;;3.67;;
18867;SDS011;9563;49.240;9.088;2023-08-24T04:37:35;6.63;;;3.70;;
18867;SDS011;9563;49.240;9.088;2023-08-24T04:40:03;6.03;;;3.20;;
18867;SDS011;9563;49.240;9.088;2023-08-24T04:42:32;6.60;;;3.65;;
18867;SDS011;9563;49.240;9.088;2023-08-24T04:44:59;3.65;;;3.05;;
18867;SDS011;9563;49.240;9.088;2023-08-24T04:47:25;5.57;;;3.00;;
18867;SDS011;9563;49.240;9.088;2023-08-24T04:49:52;5.10;;;3.45;;
18867;SDS011;9563;49.240;9.088;2023-08-24T04:52:21;9.23;;;3.58;;
18867;SDS011;9563;49.240;9.088;2023-08-24T04:54:48;7.20;;;3.28;;
18867;SDS011;9563;49.240;9.088;2023-08-24T04:57:15;6.72;;;3.00;;
18867;SDS011;9563;49.240;9.088;2023-08-24T04:59:42;4.75;;;2.90;;
18867;SDS011;9563;49.240;9.088;2023-08-24T05:02:09;5.88;;;2.75;;
18867;SDS011;9563;49.240;9.088;2023-08-24T05:04:36;4.57;;;2.90;;
18867;SDS011;9563;49.240;9.088;2023-08-24T05:07:03;4.70;;;3.17;;
18867;SDS011;9563;49.240;9.088;2023-08-24T05:09:31;6.53;;;3.20;;
18867;SDS011;9563;49.240;9.088;2023-08-24T05:11:58;7.57;;;3.03;;
18867;SDS011;9563;49.240;9.088;2023-08-24T05:14:25;4.57;;;3.30;;
18867;SDS011;9563;49.240;9.088;2023-08-24T05:16:52;6.38;;;3.10;;
18867;SDS011;9563;49.240;9.088;2023-08-24T05:19:18;3.75;;;2.88;;
18867;SDS011;9563;49.240;9.088;2023-08-24T05:21:45;6.95;;;3.22;;
18867;SDS011;9563;49.240;9.088;2023-08-24T05:24:12;6.32;;;3.00;;
18867;SDS011;9563;49.240;9.088;2023-08-24T05:26:40;7.25;;;3.08;;
18867;SDS011;9563;49.240;9.088;2023-08-24T05:29:07;4.80;;;3.20;;
18867;SDS011;9563;49.240;9.088;2023-08-24T05:31:34;5.30;;;3.03;;
18867;SDS011;9563;49.240;9.088;2023-08-24T05:34:01;4.55;;;2.80;;
18867;SDS011;9563;49.240;9.088;2023-08-24T05:36:28;6.55;;;3.10;;
18867;SDS011;9563;49.240;9.088;2023-08-24T05:38:54;6.03;;;2.88;;
18867;SDS011;9563;49.240;9.088;2023-08-24T05:41:21;4.97;;;3.20;;
18867;SDS011;9563;49.240;9.088;2023-08-24T05:43:50;6.95;;;2.88;;
18867;SDS011;9563;49.240;9.088;2023-08-24T05:46:17;5.28;;;2.88;;
18867;SDS011;9563;49.240;9.088;2023-08-24T05:48:44;4.18;;;2.78;;
18867;SDS011;9563;49.240;9.088;2023-08-24T05:51:11;5.70;;;2.72;;
18867;SDS011;9563;49.240;9.088;2023-08-24T05:53:38;5.72;;;2.67;;
18867;SDS011;9563;49.240;9.088;2023-08-24T05:56:06;4.97;;;2.65;;
18867;SDS011;9563;49.240;9.088;2023-08-24T05:58:33;5.55;;;3.22;;
18867;SDS011;9563;49.240;9.088;2023-08-24T06:01:01;7.18;;;3.17;;
18867;SDS011;9563;49.240;9.088;2023-08-24T06:03:28;5.50;;;2.83;;
18867;SDS011;9563;49.240;9.088;2023-08-24T06:06:00;3.92;;;2.25;;
18867;SDS011;9563;49.240;9.088;2023-08-24T06:08:28;5.00;;;2.30;;
18867;SDS011;9563;49.240;9.088;2023-08-24T06:10:54;7.43;;;2.40;;
18867;SDS011;9563;49.240;9.088;2023-08-24T06:13:22;5.65;;;2.47;;
18867;SDS011;9563;49.240;9.088;2023-08-24T06:15:48;4.47;;;2.58;;
18867;SDS011;9563;49.240;9.088;2023-08-24T06:18:17;4.35;;;2.45;;
18867;SDS011;9563;49.240;9.088;2023-08-24T06:20:43;4.68;;;2.40;;
18867;SDS011;9563;49.240;9.088;2023-08-24T06:23:10;6.13;;;2.40;;
18867;SDS011;9563;49.240;9.088;2023-08-24T06:25:38;4.80;;;2.63;;
18867;SDS011;9563;49.240;9.088;2023-08-24T06:28:05;4.82;;;2.53;;
18867;SDS011;9563;49.240;9.088;2023-08-24T06:30:36;4.78;;;2.60;;
18867;SDS011;9563;49.240;9.088;2023-08-24T06:33:04;6.93;;;2.47;;
18867;SDS011;9563;49.240;9.088;2023-08-24T06:35:33;7.03;;;2.53;;
18867;SDS011;9563;49.240;9.088;2023-08-24T06:38:00;4.68;;;2.25;;
18867;SDS011;9563;49.240;9.088;2023-08-24T06:40:27;9.45;;;2.53;;
18867;SDS011;9563;49.240;9.088;2023-08-24T06:42:54;7.90;;;2.20;;
18867;SDS011;9563;49.240;9.088;2023-08-24T06:45:21;4.65;;;2.10;;
18867;SDS011;9563;49.240;9.088;2023-08-24T06:47:47;4.68;;;2.22;;
18867;SDS011;9563;49.240;9.088;2023-08-24T06:50:16;5.03;;;2.10;;
18867;SDS011;9563;49.240;9.088;2023-08-24T06:52:45;7.47;;;2.33;;
18867;SDS011;9563;49.240;9.088;2023-08-24T06:55:12;4.35;;;2.47;;
18867;SDS011;9563;49.240;9.088;2023-08-24T06:57:39;6.40;;;1.85;;
18867;SDS011;9563;49.240;9.088;2023-08-24T07:00:07;7.85;;;2.80;;
18867;SDS011;9563;49.240;9.088;2023-08-24T07:02:34;8.55;;;2.42;;
18867;SDS011;9563;49.240;9.088;2023-08-24T07:05:02;2.97;;;2.33;;
18867;SDS011;9563;49.240;9.088;2023-08-24T07:07:31;6.03;;;2.47;;
18867;SDS011;9563;49.240;9.088;2023-08-24T07:09:59;4.55;;;2.17;;
18867;SDS011;9563;49.240;9.088;2023-08-24T07:12:26;5.68;;;2.78;;
18867;SDS011;9563;49.240;9.088;2023-08-24T07:14:53;5.28;;;2.35;;
18867;SDS011;9563;49.240;9.088;2023-08-24T07:17:19;6.68;;;2.53;;
18867;SDS011;9563;49.240;9.088;2023-08-24T07:19:46;5.03;;;2.60;;
18867;SDS011;9563;49.240;9.088;2023-08-24T07:22:13;3.33;;;2.10;;
18867;SDS011;9563;49.240;9.088;2023-08-24T07:24:40;3.75;;;2.28;;
18867;SDS011;9563;49.240;9.088;2023-08-24T07:27:09;5.80;;;2.35;;
18867;SDS011;9563;49.240;9.088;2023-08-24T07:29:36;4.63;;;2.13;;
18867;SDS011;9563;49.240;9.088;2023-08-24T07:32:02;8.88;;;2.53;;
18867;SDS011;9563;49.240;9.088;2023-08-24T07:34:30;12.30;;;2.45;;
18867;SDS011;9563;49.240;9.088;2023-08-24T07:36:56;3.45;;;2.03;;
18867;SDS011;9563;49.240;9.088;2023-08-24T07:39:23;8.70;;;2.90;;
18867;SDS011;9563;49.240;9.088;2023-08-24T07:41:50;5.40;;;2.35;;
18867;SDS011;9563;49.240;9.088;2023-08-24T07:44:19;4.45;;;2.75;;
18867;SDS011;9563;49.240;9.088;2023-08-24T07:46:46;5.18;;;2.78;;
18867;SDS011;9563;49.240;9.088;2023-08-24T07:49:14;5.85;;;2.22;;
18867;SDS011;9563;49.240;9.088;2023-08-24T07:51:41;4.95;;;2.50;;
18867;SDS011;9563;49.240;9.088;2023-08-24T07:54:09;5.90;;;2.30;;
18867;SDS011;9563;49.240;9.088;2023-08-24T07:56:36;6.15;;;2.38;;
18867;SDS011;9563;49.240;9.088;2023-08-24T07:59:03;5.45;;;2.15;;
18867;SDS011;9563;49.240;9.088;2023-08-24T08:01:31;4.22;;;2.22;;
18867;SDS011;9563;49.240;9.088;2023-08-24T08:03:58;6.80;;;2.65;;
18867;SDS011;9563;49.240;9.088;2023-08-24T08:06:25;6.97;;;2.13;;
18867;SDS011;9563;49.240;9.088;2023-08-24T08:08:52;3.80;;;1.90;;
18867;SDS011;9563;49.240;9.088;2023-08-24T08:11:19;7.68;;;2.40;;
18867;SDS011;9563;49.240;9.088;2023-08-24T08:13:47;5.30;;;2.45;;
18867;SDS011;9563;49.240;9.088;2023-08-24T08:16:14;6.03;;;2.17;;
18867;SDS011;9563;49.240;9.088;2023-08-24T08:18:42;2.50;;;1.90;;
18867;SDS011;9563;49.240;9.088;2023-08-24T08:21:09;3.15;;;2.05;;
18867;SDS011;9563;49.240;9.088;2023-08-24T08:23:37;59.55;;;4.43;;
18867;SDS011;9563;49.240;9.088;2023-08-24T08:26:04;4.93;;;2.33;;
18867;SDS011;9563;49.240;9.088;2023-08-24T08:28:31;5.75;;;2.80;;
18867;SDS011;9563;49.240;9.088;2023-08-24T08:30:59;3.75;;;2.20;;
18867;SDS011;9563;49.240;9.088;2023-08-24T08:33:27;6.05;;;2.13;;
18867;SDS011;9563;49.240;9.088;2023-08-24T08:35:55;4.32;;;2.20;;
18867;SDS011;9563;49.240;9.088;2023-08-24T08:38:22;13.48;;;2.67;;
18867;SDS011;9563;49.240;9.088;2023-08-24T08:40:51;4.38;;;2.05;;
18867;SDS011;9563;49.240;9.088;2023-08-24T08:43:19;10.30;;;2.42;;
18867;SDS011;9563;49.240;9.088;2023-08-24T08:45:48;4.53;;;2.40;;
18867;SDS011;9563;49.240;9.088;2023-08-24T08:48:16;5.78;;;2.40;;
18867;SDS011;9563;49.240;9.088;2023-08-24T08:50:43;4.63;;;2.28;;
18867;SDS011;9563;49.240;9.088;2023-08-24T08:53:12;3.63;;;2.20;;
18867;SDS011;9563;49.240;9.088;2023-08-24T08:55:40;6.38;;;2.50;;
18867;SDS011;9563;49.240;9.088;2023-08-24T08:58:07;4.35;;;2.00;;
18867;SDS011;9563;49.240;9.088;2023-08-24T09:00:35;5.78;;;2.38;;
18867;SDS011;9563;49.240;9.088;2023-08-24T09:03:04;5.07;;;1.92;;
18867;SDS011;9563;49.240;9.088;2023-08-24T09:05:31;5.20;;;2.10;;
18867;SDS011;9563;49.240;9.088;2023-08-24T09:07:59;4.53;;;2.70;;
18867;SDS011;9563;49.240;9.088;2023-08-24T09:10:29;6.85;;;2.10;;
18867;SDS011;9563;49.240;9.088;2023-08-24T09:12:56;11.80;;;2.50;;
18867;SDS011;9563;49.240;9.088;2023-08-24T09:15:24;4.07;;;2.47;;
18867;SDS011;9563;49.240;9.088;2023-08-24T09:17:52;3.50;;;1.85;;
18867;SDS011;9563;49.240;9.088;2023-08-24T09:20:21;5.32;;;2.38;;
18867;SDS011;9563;49.240;9.088;2023-08-24T09:22:48;5.03;;;2.30;;
18867;SDS011;9563;49.240;9.088;2023-08-24T09:25:16;7.10;;;3.08;;
18867;SDS011;9563;49.240;9.088;2023-08-24T09:27:44;5.00;;;2.53;;
18867;SDS011;9563;49.240;9.088;2023-08-24T09:30:11;11.80;;;3.05;;
18867;SDS011;9563;49.240;9.088;2023-08-24T09:32:40;9.43;;;2.70;;
18867;SDS011;9563;49.240;9.088;2023-08-24T09:35:08;4.93;;;2.33;;
18867;SDS011;9563;49.240;9.088;2023-08-24T09:37:35;4.93;;;2.28;;
18867;SDS011;9563;49.240;9.088;2023-08-24T09:40:04;8.27;;;2.50;;
18867;SDS011;9563;49.240;9.088;2023-08-24T09:42:37;6.30;;;2.63;;
18867;SDS011;9563;49.240;9.088;2023-08-24T09:45:07;5.80;;;2.70;;
18867;SDS011;9563;49.240;9.088;2023-08-24T09:47:37;6.28;;;2.40;;
18867;SDS011;9563;49.240;9.088;2023-08-24T09:50:04;4.60;;;2.20;;
18867;SDS011;9563;49.240;9.088;2023-08-24T09:52:32;6.82;;;2.60;;
18867;SDS011;9563;49.240;9.088;2023-08-24T09:55:02;11.23;;;2.40;;
18867;SDS011;9563;49.240;9.088;2023-08-24T09:57:32;5.60;;;2.53;;
18867;SDS011;9563;49.240;9.088;2023-08-24T10:00:03;5.32;;;2.45;;
18867;SDS011;9563;49.240;9.088;2023-08-24T10:02:36;7.68;;;2.72;;
18867;SDS011;9563;49.240;9.088;2023-08-24T10:05:05;6.50;;;2.75;;
18867;SDS011;9563;49.240;9.088;2023-08-24T10:07:36;4.93;;;2.08;;
18867;SDS011;9563;49.240;9.088;2023-08-24T10:10:06;4.10;;;2.53;;
18867;SDS011;9563;49.240;9.088;2023-08-24T10:12:38;6.45;;;2.63;;
18867;SDS011;9563;49.240;9.088;2023-08-24T10:15:12;8.45;;;2.95;;
18867;SDS011;9563;49.240;9.088;2023-08-24T10:17:41;3.72;;;2.50;;
18867;SDS011;9563;49.240;9.088;2023-08-24T10:20:09;5.70;;;2.75;;
18867;SDS011;9563;49.240;9.088;2023-08-24T10:22:37;7.65;;;2.65;;
18867;SDS011;9563;49.240;9.088;2023-08-24T10:25:06;5.32;;;2.72;;
18867;SDS011;9563;49.240;9.088;2023-08-24T10:27:34;9.85;;;2.55;;
18867;SDS011;9563;49.240;9.088;2023-08-24T10:30:02;6.18;;;2.40;;
18867;SDS011;9563;49.240;9.088;2023-08-24T10:32:29;8.93;;;2.53;;
18867;SDS011;9563;49.240;9.088;2023-08-24T10:34:59;5.38;;;2.70;;
18867;SDS011;9563;49.240;9.088;2023-08-24T10:37:26;9.85;;;2.85;;
18867;SDS011;9563;49.240;9.088;2023-08-24T10:39:53;4.00;;;2.50;;
18867;SDS011;9563;49.240;9.088;2023-08-24T10:42:20;9.93;;;2.75;;
18867;SDS011;9563;49.240;9.088;2023-08-24T10:44:47;7.40;;;2.55;;
18867;SDS011;9563;49.240;9.088;2023-08-24T10:47:16;5.50;;;2.38;;
18867;SDS011;9563;49.240;9.088;2023-08-24T10:49:45;6.40;;;2.70;;
18867;SDS011;9563;49.240;9.088;2023-08-24T10:52:26;9.93;;;2.58;;
18867;SDS011;9563;49.240;9.088;2023-08-24T10:54:56;12.13;;;3.17;;
18867;SDS011;9563;49.240;9.088;2023-08-24T10:57:24;5.03;;;2.55;;
18867;SDS011;9563;49.240;9.088;2023-08-24T10:59:59;6.68;;;2.58;;
18867;SDS011;9563;49.240;9.088;2023-08-24T11:02:30;9.95;;;2.90;;
18867;SDS011;9563;49.240;9.088;2023-08-24T11:05:14;7.93;;;2.60;;
18867;SDS011;9563;49.240;9.088;2023-08-24T11:07:49;5.97;;;2.80;;
18867;SDS011;9563;49.240;9.088;2023-08-24T11:10:17;5.75;;;2.60;;
18867;SDS011;9563;49.240;9.088;2023-08-24T11:15:33;5.78;;;2.70;;
18867;SDS011;9563;49.240;9.088;2023-08-24T11:18:13;10.00;;;3.22;;
18867;SDS011;9563;49.240;9.088;2023-08-24T11:20:44;6.57;;;2.90;;
18867;SDS011;9563;49.240;9.088;2023-08-24T11:23:11;5.18;;;2.90;;
18867;SDS011;9563;49.240;9.088;2023-08-24T11:25:39;5.88;;;2.72;;
18867;SDS011;9563;49.240;9.088;2023-08-24T11:28:06;3.60;;;2.78;;
18867;SDS011;9563;49.240;9.088;2023-08-24T11:30:33;6.32;;;2.72;;
18867;SDS011;9563;49.240;9.088;2023-08-24T11:33:00;6.43;;;2.63;;
18867;SDS011;9563;49.240;9.088;2023-08-24T11:35:28;9.07;;;3.20;;
18867;SDS011;9563;49.240;9.088;2023-08-24T11:37:56;9.02;;;2.85;;
18867;SDS011;9563;49.240;9.088;2023-08-24T11:40:23;3.90;;;3.20;;
18867;SDS011;9563;49.240;9.088;2023-08-24T11:42:53;7.40;;;3.25;;
18867;SDS011;9563;49.240;9.088;2023-08-24T11:45:20;9.98;;;3.40;;
18867;SDS011;9563;49.240;9.088;2023-08-24T11:47:48;5.47;;;3.08;;
18867;SDS011;9563;49.240;9.088;2023-08-24T11:50:15;5.65;;;2.78;;
18867;SDS011;9563;49.240;9.088;2023-08-24T11:52:43;4.32;;;3.15;;
18867;SDS011;9563;49.240;9.088;2023-08-24T11:55:11;5.32;;;3.03;;
18867;SDS011;9563;49.240;9.088;2023-08-24T11:57:38;9.27;;;3.38;;
18867;SDS011;9563;49.240;9.088;2023-08-24T12:00:06;6.60;;;3.00;;
18867;SDS011;9563;49.240;9.088;2023-08-24T12:02:34;6.55;;;3.00;;
18867;SDS011;9563;49.240;9.088;2023-08-24T12:05:01;7.88;;;3.20;;
18867;SDS011;9563;49.240;9.088;2023-08-24T12:07:32;7.53;;;3.17;;
18867;SDS011;9563;49.240;9.088;2023-08-24T12:10:01;8.50;;;3.10;;
18867;SDS011;9563;49.240;9.088;2023-08-24T12:12:29;7.28;;;3.13;;
18867;SDS011;9563;49.240;9.088;2023-08-24T12:14:56;5.10;;;3.25;;
18867;SDS011;9563;49.240;9.088;2023-08-24T12:17:23;5.32;;;3.00;;
18867;SDS011;9563;49.240;9.088;2023-08-24T12:19:56;6.00;;;3.15;;
18867;SDS011;9563;49.240;9.088;2023-08-24T12:22:24;5.03;;;2.83;;
18867;SDS011;9563;49.240;9.088;2023-08-24T12:24:51;5.22;;;3.10;;
18867;SDS011;9563;49.240;9.088;2023-08-24T12:27:18;7.25;;;3.17;;
18867;SDS011;9563;49.240;9.088;2023-08-24T12:29:47;3.53;;;2.75;;
18867;SDS011;9563;49.240;9.088;2023-08-24T12:32:14;5.75;;;3.03;;
18867;SDS011;9563;49.240;9.088;2023-08-24T12:34:44;8.65;;;2.83;;
18867;SDS011;9563;49.240;9.088;2023-08-24T12:37:11;5.38;;;2.97;;
18867;SDS011;9563;49.240;9.088;2023-08-24T12:39:39;5.82;;;3.28;;
18867;SDS011;9563;49.240;9.088;2023-08-24T12:42:06;5.88;;;2.72;;
18867;SDS011;9563;49.240;9.088;2023-08-24T12:44:33;7.85;;;3.25;;
18867;SDS011;9563;49.240;9.088;2023-08-24T12:47:02;5.47;;;3.25;;
18867;SDS011;9563;49.240;9.088;2023-08-24T12:49:30;6.28;;;3.20;;
18867;SDS011;9563;49.240;9.088;2023-08-24T12:51:57;6.40;;;3.47;;
18867;SDS011;9563;49.240;9.088;2023-08-24T12:54:24;5.80;;;3.00;;
18867;SDS011;9563;49.240;9.088;2023-08-24T12:56:50;8.02;;;3.30;;
18867;SDS011;9563;49.240;9.088;2023-08-24T12:59:18;6.60;;;3.65;;
18867;SDS011;9563;49.240;9.088;2023-08-24T13:01:45;9.10;;;3.55;;
18867;SDS011;9563;49.240;9.088;2023-08-24T13:04:14;9.30;;;3.33;;
18867;SDS011;9563;49.240;9.088;2023-08-24T13:06:40;5.85;;;3.42;;
18867;SDS011;9563;49.240;9.088;2023-08-24T13:09:08;6.68;;;3.97;;
18867;SDS011;9563;49.240;9.088;2023-08-24T13:11:37;7.97;;;3.83;;
18867;SDS011;9563;49.240;9.088;2023-08-24T13:14:03;7.47;;;3.65;;
18867;SDS011;9563;49.240;9.088;2023-08-24T13:16:30;9.55;;;3.80;;
18867;SDS011;9563;49.240;9.088;2023-08-24T13:18:57;7.53;;;3.70;;
18867;SDS011;9563;49.240;9.088;2023-08-24T13:21:26;9.75;;;3.63;;
18867;SDS011;9563;49.240;9.088;2023-08-24T13:23:53;5.38;;;3.80;;
18867;SDS011;9563;49.240;9.088;2023-08-24T13:26:20;7.60;;;3.83;;
18867;SDS011;9563;49.240;9.088;2023-08-24T13:28:48;7.85;;;3.95;;
18867;SDS011;9563;49.240;9.088;2023-08-24T13:31:15;4.85;;;3.33;;
18867;SDS011;9563;49.240;9.088;2023-08-24T13:33:42;6.97;;;3.67;;
18867;SDS011;9563;49.240;9.088;2023-08-24T13:36:10;8.02;;;3.45;;
18867;SDS011;9563;49.240;9.088;2023-08-24T13:38:38;9.30;;;3.58;;
18867;SDS011;9563;49.240;9.088;2023-08-24T13:41:05;3.55;;;3.22;;
18867;SDS011;9563;49.240;9.088;2023-08-24T13:43:32;5.30;;;3.65;;
18867;SDS011;9563;49.240;9.088;2023-08-24T13:45:59;10.23;;;3.67;;
18867;SDS011;9563;49.240;9.088;2023-08-24T13:48:26;5.40;;;3.05;;
18867;SDS011;9563;49.240;9.088;2023-08-24T13:50:54;8.60;;;3.60;;
18867;SDS011;9563;49.240;9.088;2023-08-24T13:53:21;5.75;;;3.50;;
18867;SDS011;9563;49.240;9.088;2023-08-24T13:55:50;5.10;;;3.60;;
18867;SDS011;9563;49.240;9.088;2023-08-24T13:58:16;8.52;;;3.40;;
18867;SDS011;9563;49.240;9.088;2023-08-24T14:00:43;4.75;;;3.17;;
18867;SDS011;9563;49.240;9.088;2023-08-24T14:03:10;8.35;;;3.97;;
18867;SDS011;9563;49.240;9.088;2023-08-24T14:05:38;6.05;;;3.72;;
18867;SDS011;9563;49.240;9.088;2023-08-24T14:08:05;14.13;;;3.78;;
18867;SDS011;9563;49.240;9.088;2023-08-24T14:10:33;7.93;;;4.13;;
18867;SDS011;9563;49.240;9.088;2023-08-24T14:13:01;6.80;;;3.38;;
18867;SDS011;9563;49.240;9.088;2023-08-24T14:15:28;8.25;;;3.58;;
18867;SDS011;9563;49.240;9.088;2023-08-24T14:17:55;4.40;;;3.67;;
18867;SDS011;9563;49.240;9.088;2023-08-24T14:20:22;4.82;;;3.88;;
18867;SDS011;9563;49.240;9.088;2023-08-24T14:22:49;5.68;;;3.63;;
18867;SDS011;9563;49.240;9.088;2023-08-24T14:25:16;5.38;;;3.85;;
18867;SDS011;9563;49.240;9.088;2023-08-24T14:27:43;5.18;;;3.50;;
18867;SDS011;9563;49.240;9.088;2023-08-24T14:30:12;5.10;;;3.40;;
18867;SDS011;9563;49.240;9.088;2023-08-24T14:32:39;4.85;;;3.50;;
18867;SDS011;9563;49.240;9.088;2023-08-24T14:35:06;7.13;;;3.97;;
18867;SDS011;9563;49.240;9.088;2023-08-24T14:37:34;6.05;;;3.60;;
18867;SDS011;9563;49.240;9.088;2023-08-24T14:40:03;4.75;;;3.85;;
18867;SDS011;9563;49.240;9.088;2023-08-24T14:42:31;6.15;;;3.92;;
18867;SDS011;9563;49.240;9.088;2023-08-24T14:44:58;9.45;;;3.92;;
18867;SDS011;9563;49.240;9.088;2023-08-24T14:47:26;8.50;;;3.63;;
18867;SDS011;9563;49.240;9.088;2023-08-24T14:49:53;5.82;;;3.58;;
18867;SDS011;9563;49.240;9.088;2023-08-24T14:52:19;10.35;;;3.90;;
18867;SDS011;9563;49.240;9.088;2023-08-24T14:54:46;7.70;;;3.95;;
18867;SDS011;9563;49.240;9.088;2023-08-24T14:57:13;8.95;;;3.40;;
18867;SDS011;9563;49.240;9.088;2023-08-24T14:59:40;7.18;;;3.80;;
18867;SDS011;9563;49.240;9.088;2023-08-24T15:02:07;10.05;;;3.70;;
18867;SDS011;9563;49.240;9.088;2023-08-24T15:04:35;12.63;;;3.90;;
18867;SDS011;9563;49.240;9.088;2023-08-24T15:07:03;14.98;;;3.83;;
18867;SDS011;9563;49.240;9.088;2023-08-24T15:09:30;10.50;;;4.75;;
18867;SDS011;9563;49.240;9.088;2023-08-24T15:11:57;22.95;;;6.85;;
18867;SDS011;9563;49.240;9.088;2023-08-24T15:14:24;16.83;;;5.97;;
18867;SDS011;9563;49.240;9.088;2023-08-24T15:16:56;19.75;;;5.88;;
18867;SDS011;9563;49.240;9.088;2023-08-24T15:19:23;12.38;;;5.72;;
18867;SDS011;9563;49.240;9.088;2023-08-24T15:21:51;10.88;;;5.03;;
18867;SDS011;9563;49.240;9.088;2023-08-24T15:24:18;11.73;;;5.63;;
18867;SDS011;9563;49.240;9.088;2023-08-24T15:26:44;8.00;;;5.57;;
18867;SDS011;9563;49.240;9.088;2023-08-24T15:29:12;10.75;;;5.75;;
18867;SDS011;9563;49.240;9.088;2023-08-24T15:31:40;10.73;;;5.68;;
18867;SDS011;9563;49.240;9.088;2023-08-24T15:34:08;7.95;;;5.38;;
18867;SDS011;9563;49.240;9.088;2023-08-24T15:36:35;11.13;;;5.03;;
18867;SDS011;9563;49.240;9.088;2023-08-24T15:39:03;10.20;;;5.07;;
18867;SDS011;9563;49.240;9.088;2023-08-24T15:41:30;10.68;;;5.05;;
18867;SDS011;9563;49.240;9.088;2023-08-24T15:43:57;6.03;;;4.63;;
18867;SDS011;9563;49.240;9.088;2023-08-24T15:46:24;13.77;;;6.05;;
18867;SDS011;9563;49.240;9.088;2023-08-24T15:48:51;18.95;;;6.43;;
18867;SDS011;9563;49.240;9.088;2023-08-24T15:51:20;9.80;;;5.38;;
18867;SDS011;9563;49.240;9.088;2023-08-24T15:53:48;12.68;;;5.07;;
18867;SDS011;9563;49.240;9.088;2023-08-24T15:56:16;11.02;;;4.93;;
18867;SDS011;9563;49.240;9.088;2023-08-24T15:58:43;7.68;;;3.95;;
18867;SDS011;9563;49.240;9.088;2023-08-24T16:01:11;9.45;;;4.00;;
18867;SDS011;9563;49.240;9.088;2023-08-24T16:03:37;6.47;;;3.70;;
18867;SDS011;9563;49.240;9.088;2023-08-24T16:06:05;6.90;;;3.50;;
18867;SDS011;9563;49.240;9.088;2023-08-24T16:08:32;5.80;;;3.78;;
18867;SDS011;9563;49.240;9.088;2023-08-24T16:10:59;7.63;;;3.60;;
18867;SDS011;9563;49.240;9.088;2023-08-24T16:13:27;6.55;;;3.30;;
18867;SDS011;9563;49.240;9.088;2023-08-24T16:15:54;6.47;;;2.92;;
18867;SDS011;9563;49.240;9.088;2023-08-24T16:18:22;7.40;;;3.35;;
18867;SDS011;9563;49.240;9.088;2023-08-24T16:20:50;8.05;;;3.72;;
18867;SDS011;9563;49.240;9.088;2023-08-24T16:23:17;5.53;;;2.72;;
18867;SDS011;9563;49.240;9.088;2023-08-24T16:25:44;8.65;;;3.00;;
18867;SDS011;9563;49.240;9.088;2023-08-24T16:28:11;5.40;;;3.55;;
18867;SDS011;9563;49.240;9.088;2023-08-24T16:30:40;7.82;;;3.33;;
18867;SDS011;9563;49.240;9.088;2023-08-24T16:33:07;10.75;;;3.63;;
18867;SDS011;9563;49.240;9.088;2023-08-24T16:35:34;5.80;;;3.10;;
18867;SDS011;9563;49.240;9.088;2023-08-24T16:38:01;4.20;;;3.35;;
18867;SDS011;9563;49.240;9.088;2023-08-24T16:40:28;5.70;;;2.33;;
18867;SDS011;9563;49.240;9.088;2023-08-24T16:42:55;5.80;;;2.53;;
18867;SDS011;9563;49.240;9.088;2023-08-24T16:45:23;6.97;;;3.17;;
18867;SDS011;9563;49.240;9.088;2023-08-24T16:47:51;8.85;;;3.22;;
18867;SDS011;9563;49.240;9.088;2023-08-24T16:50:18;3.67;;;2.85;;
18867;SDS011;9563;49.240;9.088;2023-08-24T16:52:45;6.40;;;2.97;;
18867;SDS011;9563;49.240;9.088;2023-08-24T16:55:12;12.32;;;2.58;;
18867;SDS011;9563;49.240;9.088;2023-08-24T16:57:41;5.80;;;3.17;;
18867;SDS011;9563;49.240;9.088;2023-08-24T17:00:10;10.60;;;3.28;;
18867;SDS011;9563;49.240;9.088;2023-08-24T17:02:39;4.60;;;2.35;;
18867;SDS011;9563;49.240;9.088;2023-08-24T17:05:08;6.85;;;3.75;;
18867;SDS011;9563;49.240;9.088;2023-08-24T17:07:37;6.85;;;3.33;;
18867;SDS011;9563;49.240;9.088;2023-08-24T17:10:05;10.50;;;3.65;;
18867;SDS011;9563;49.240;9.088;2023-08-24T17:12:32;6.70;;;3.17;;
18867;SDS011;9563;49.240;9.088;2023-08-24T17:15:00;8.68;;;3.85;;
18867;SDS011;9563;49.240;9.088;2023-08-24T17:17:26;9.23;;;3.65;;
18867;SDS011;9563;49.240;9.088;2023-08-24T17:19:53;5.57;;;3.05;;
18867;SDS011;9563;49.240;9.088;2023-08-24T17:22:22;4.18;;;2.75;;
18867;SDS011;9563;49.240;9.088;2023-08-24T17:24:48;5.22;;;3.00;;
18867;SDS011;9563;49.240;9.088;2023-08-24T17:27:15;11.93;;;3.38;;
18867;SDS011;9563;49.240;9.088;2023-08-24T17:29:42;8.05;;;3.28;;
18867;SDS011;9563;49.240;9.088;2023-08-24T17:32:09;6.45;;;3.60;;
18867;SDS011;9563;49.240;9.088;2023-08-24T17:34:36;9.75;;;4.40;;
18867;SDS011;9563;49.240;9.088;2023-08-24T17:37:03;11.38;;;4.00;;
18867;SDS011;9563;49.240;9.088;2023-08-24T17:39:32;8.25;;;4.07;;
18867;SDS011;9563;49.240;9.088;2023-08-24T17:41:59;5.35;;;4.32;;
18867;SDS011;9563;49.240;9.088;2023-08-24T17:44:25;7.47;;;5.03;;
18867;SDS011;9563;49.240;9.088;2023-08-24T17:46:54;9.50;;;5.03;;
18867;SDS011;9563;49.240;9.088;2023-08-24T17:49:21;9.13;;;5.05;;
18867;SDS011;9563;49.240;9.088;2023-08-24T17:51:48;9.85;;;5.00;;
18867;SDS011;9563;49.240;9.088;2023-08-24T17:54:15;10.38;;;5.57;;
18867;SDS011;9563;49.240;9.088;2023-08-24T17:56:43;13.45;;;6.13;;
18867;SDS011;9563;49.240;9.088;2023-08-24T17:59:10;20.85;;;6.30;;
18867;SDS011;9563;49.240;9.088;2023-08-24T18:01:37;12.55;;;6.28;;
18867;SDS011;9563;49.240;9.088;2023-08-24T18:04:04;10.25;;;5.70;;
18867;SDS011;9563;49.240;9.088;2023-08-24T18:06:31;9.05;;;5.57;;
18867;SDS011;9563;49.240;9.088;2023-08-24T18:08:57;10.80;;;5.70;;
18867;SDS011;9563;49.240;9.088;2023-08-24T18:11:25;12.80;;;5.28;;
18867;SDS011;9563;49.240;9.088;2023-08-24T18:13:53;13.48;;;6.20;;
18867;SDS011;9563;49.240;9.088;2023-08-24T18:16:20;8.82;;;5.70;;
18867;SDS011;9563;49.240;9.088;2023-08-24T18:18:47;7.28;;;5.35;;
18867;SDS011;9563;49.240;9.088;2023-08-24T18:21:13;10.73;;;5.80;;
18867;SDS011;9563;49.240;9.088;2023-08-24T18:23:40;13.88;;;5.90;;
18867;SDS011;9563;49.240;9.088;2023-08-24T18:26:07;11.73;;;5.45;;
18867;SDS011;9563;49.240;9.088;2023-08-24T18:28:34;11.27;;;5.55;;
18867;SDS011;9563;49.240;9.088;2023-08-24T18:31:02;10.95;;;5.10;;
18867;SDS011;9563;49.240;9.088;2023-08-24T18:33:30;11.18;;;6.13;;
18867;SDS011;9563;49.240;9.088;2023-08-24T18:35:57;8.77;;;5.00;;
18867;SDS011;9563;49.240;9.088;2023-08-24T18:38:24;7.82;;;4.80;;
18867;SDS011;9563;49.240;9.088;2023-08-24T18:40:51;11.90;;;6.43;;
18867;SDS011;9563;49.240;9.088;2023-08-24T18:43:19;13.82;;;5.60;;
18867;SDS011;9563;49.240;9.088;2023-08-24T18:45:52;12.13;;;6.00;;
18867;SDS011;9563;49.240;9.088;2023-08-24T18:48:21;11.48;;;6.38;;
18867;SDS011;9563;49.240;9.088;2023-08-24T18:50:48;13.40;;;6.15;;
18867;SDS011;9563;49.240;9.088;2023-08-24T18:53:15;9.75;;;5.95;;
18867;SDS011;9563;49.240;9.088;2023-08-24T18:55:42;12.02;;;6.55;;
18867;SDS011;9563;49.240;9.088;2023-08-24T18:58:09;10.27;;;6.47;;
18867;SDS011;9563;49.240;9.088;2023-08-24T19:00:36;11.70;;;6.38;;
18867;SDS011;9563;49.240;9.088;2023-08-24T19:03:03;11.07;;;6.50;;
18867;SDS011;9563;49.240;9.088;2023-08-24T19:05:31;11.90;;;6.45;;
18867;SDS011;9563;49.240;9.088;2023-08-24T19:07:58;10.98;;;6.82;;